Time;durP1;ratioP1;P1;durP2;ratioP2;P2;SDS_P1;SDS_P2;PMS_P1;PMS_P2;Temp;Humidity;BMP_temperature;BMP_pressure;BME280_temperature;BME280_humidity;BME280_pressure;Samples;Min_cycle;Max_cycle;Signal;HPM_P1;HPM_P2
2023/08/14 00:01:23;;;;;;;10.95;2.13;;;16.70;98.80;;;;;;4965436;28;91994;-75
2023/08/14 00:03:50;;;;;;;3.70;1.92;;;16.70;98.70;;;;;;4964255;28;94164;-75
2023/08/14 00:06:15;;;;;;;5.75;2.00;;;16.60;98.60;;;;;;4964040;28;93250;-75
2023/08/14 00:08:41;;;;;;;7.88;1.65;;;16.60;98.60;;;;;;4966699;28;93582;-75
2023/08/14 00:11:06;;;;;;;4.05;1.80;;;16.60;98.60;;;;;;4965189;28;92719;-75
2023/08/14 00:13:51;;;;;;;6.28;1.80;;;16.60;98.70;;;;;;4962808;28;93736;-75
2023/08/14 00:16:17;;;;;;;6.00;1.83;;;16.60;98.70;;;;;;4954557;28;96809;-75
2023/08/14 00:18:43;;;;;;;4.68;1.63;;;16.60;98.70;;;;;;4956539;28;92908;-75
2023/08/14 00:21:08;;;;;;;5.82;2.08;;;16.50;98.60;;;;;;4963008;28;92603;-75
2023/08/14 00:23:34;;;;;;;6.38;1.83;;;16.40;98.50;;;;;;4946923;28;96796;-75
2023/08/14 00:26:00;;;;;;;5.25;1.98;;;16.50;98.60;;;;;;4965730;28;93884;-75
2023/08/14 00:28:25;;;;;;;6.28;1.67;;;16.40;98.80;;;;;;4948288;28;93098;-75
2023/08/14 00:30:51;;;;;;;7.60;1.80;;;16.40;98.90;;;;;;4965167;28;92829;-75
2023/08/14 00:33:16;;;;;;;10.23;2.08;;;16.30;98.90;;;;;;4966348;28;94270;-75
2023/08/14 00:35:42;;;;;;;6.30;2.03;;;16.30;98.80;;;;;;4964859;28;94924;-75
2023/08/14 00:38:08;;;;;;;5.30;1.98;;;16.30;98.80;;;;;;4947777;28;92740;-75
2023/08/14 00:40:33;;;;;;;5.18;1.80;;;16.20;98.80;;;;;;4964644;28;93029;-76
2023/08/14 00:42:59;;;;;;;7.53;1.67;;;16.20;98.80;;;;;;4948147;28;96438;-76
2023/08/14 00:45:25;;;;;;;7.65;1.90;;;16.20;98.70;;;;;;4966164;28;92545;-75
2023/08/14 00:47:51;;;;;;;6.22;1.50;;;16.20;98.70;;;;;;4963304;28;92484;-75
2023/08/14 00:50:18;;;;;;;5.05;2.22;;;16.20;98.80;;;;;;4964543;28;92085;-75
2023/08/14 00:52:46;;;;;;;6.30;1.73;;;16.10;98.70;;;;;;4964250;28;95273;-75
2023/08/14 00:55:16;;;;;;;5.55;2.25;;;16.10;98.70;;;;;;4964181;28;93347;-75
2023/08/14 00:57:42;;;;;;;4.75;1.65;;;16.10;98.70;;;;;;4964175;28;93630;-75
2023/08/14 01:00:09;;;;;;;6.78;1.80;;;16.00;98.70;;;;;;4965505;28;92748;-75
2023/08/14 01:02:36;;;;;;;5.30;2.30;;;16.00;98.70;;;;;;4964494;28;92642;-75
2023/08/14 01:05:02;;;;;;;9.98;1.85;;;15.90;98.80;;;;;;4963703;28;93032;-75
2023/08/14 01:07:29;;;;;;;7.90;2.00;;;15.90;98.80;;;;;;4963599;28;92852;-75
2023/08/14 01:09:55;;;;;;;4.18;1.38;;;15.90;98.80;;;;;;4962159;28;92755;-75
2023/08/14 01:12:50;;;;;;;7.15;2.53;;;15.90;98.90;;;;;;4963708;28;93705;-75
2023/08/14 01:15:30;;;;;;;3.58;1.98;;;15.80;98.90;;;;;;4963887;28;93250;-75
2023/08/14 01:17:59;;;;;;;6.15;1.92;;;15.80;99.00;;;;;;4965546;28;92632;-75
2023/08/14 01:20:29;;;;;;;5.07;1.90;;;15.70;99.00;;;;;;4962044;28;92140;-75
2023/08/14 01:23:06;;;;;;;6.90;1.50;;;15.70;99.00;;;;;;4944856;28;95222;-75
2023/08/14 01:25:37;;;;;;;4.90;1.52;;;15.70;99.00;;;;;;4963935;28;94404;-75
2023/08/14 01:28:04;;;;;;;3.50;1.63;;;15.60;99.00;;;;;;4962224;28;92585;-75
2023/08/14 01:30:30;;;;;;;7.10;1.88;;;15.60;99.20;;;;;;4963313;28;92789;-75
2023/08/14 01:32:56;;;;;;;8.05;2.42;;;15.60;99.90;;;;;;4963753;28;94978;-75
2023/08/14 01:35:24;;;;;;;10.07;1.98;;;15.50;99.70;;;;;;4964264;28;93332;-75
2023/08/14 01:38:03;;;;;;;6.05;1.63;;;15.50;99.70;;;;;;4947613;28;92636;-75
2023/08/14 01:40:46;;;;;;;4.07;1.65;;;15.50;99.70;;;;;;4964053;28;92513;-75
2023/08/14 01:43:20;;;;;;;5.68;1.98;;;15.40;99.70;;;;;;4963399;28;93651;-75
2023/08/14 01:45:46;;;;;;;8.18;1.90;;;15.40;99.60;;;;;;4963103;28;93349;-75
2023/08/14 01:48:14;;;;;;;6.68;1.50;;;15.40;99.80;;;;;;4962666;28;93403;-74
2023/08/14 01:50:40;;;;;;;5.28;1.65;;;15.30;99.60;;;;;;4965060;28;93136;-75
2023/08/14 01:53:06;;;;;;;4.38;1.92;;;15.20;99.80;;;;;;4965283;28;94140;-75
2023/08/14 01:55:32;;;;;;;7.80;1.58;;;15.20;99.80;;;;;;4963226;28;92920;-75
2023/08/14 01:57:57;;;;;;;8.43;1.73;;;15.20;99.90;;;;;;4964457;28;93109;-75
2023/08/14 02:00:23;;;;;;;4.25;1.70;;;15.20;99.90;;;;;;4963277;28;92673;-75
2023/08/14 02:02:50;;;;;;;6.43;1.70;;;15.20;99.80;;;;;;4964140;28;94862;-75
2023/08/14 02:05:15;;;;;;;10.98;2.15;;;15.20;99.80;;;;;;4964428;28;92815;-75
2023/08/14 02:07:42;;;;;;;3.30;1.63;;;15.10;99.90;;;;;;4964438;28;92526;-76
2023/08/14 02:10:08;;;;;;;5.03;1.90;;;15.10;99.90;;;;;;4961376;28;92633;-75
2023/08/14 02:12:34;;;;;;;4.88;1.77;;;15.10;99.90;;;;;;4943734;28;98139;-75
2023/08/14 02:14:59;;;;;;;8.63;1.90;;;15.00;99.90;;;;;;4946382;28;96892;-75
2023/08/14 02:17:27;;;;;;;8.75;1.95;;;15.00;99.90;;;;;;4963682;28;93103;-75
2023/08/14 02:19:53;;;;;;;10.75;2.17;;;15.00;99.90;;;;;;4963616;28;92841;-75
2023/08/14 02:22:19;;;;;;;10.27;2.70;;;15.00;99.90;;;;;;4963288;28;93872;-75
2023/08/14 02:24:44;;;;;;;4.95;1.80;;;14.90;99.90;;;;;;4964324;28;94134;-75
2023/08/14 02:27:10;;;;;;;5.78;1.80;;;15.00;99.90;;;;;;4962178;28;92215;-75
2023/08/14 02:29:36;;;;;;;3.35;1.65;;;14.90;99.90;;;;;;4965252;28;91685;-74
2023/08/14 02:32:01;;;;;;;8.07;1.98;;;14.90;99.90;;;;;;4967093;28;94806;-77
2023/08/14 02:34:48;;;;;;;4.65;1.65;;;14.90;99.90;;;;;;4967359;28;93038;-75
2023/08/14 02:37:16;;;;;;;6.97;2.45;;;14.90;99.90;;;;;;4966931;28;93783;-75
2023/08/14 02:39:42;;;;;;;3.33;1.60;;;14.90;99.90;;;;;;4967005;28;93027;-75
2023/08/14 02:42:08;;;;;;;4.15;1.75;;;14.80;99.90;;;;;;4966541;28;93580;-75
2023/08/14 02:44:35;;;;;;;7.72;2.67;;;14.80;99.90;;;;;;4949917;28;96493;-74
2023/08/14 02:47:01;;;;;;;4.82;1.60;;;14.80;99.90;;;;;;4957061;28;92927;-74
2023/08/14 02:49:27;;;;;;;5.20;1.90;;;14.80;99.90;;;;;;4966842;28;92830;-75
2023/08/14 02:51:53;;;;;;;5.88;1.65;;;14.70;99.90;;;;;;4965164;28;93751;-75
2023/08/14 02:54:19;;;;;;;5.55;1.90;;;14.70;99.90;;;;;;4965504;28;92911;-75
2023/08/14 02:56:45;;;;;;;4.82;1.67;;;14.70;99.90;;;;;;4965940;28;92755;-75
2023/08/14 02:59:10;;;;;;;8.35;2.97;;;14.70;99.90;;;;;;4966387;28;92712;-75
2023/08/14 03:01:36;;;;;;;4.93;1.70;;;14.70;99.90;;;;;;4965186;28;94675;-75
2023/08/14 03:04:02;;;;;;;14.65;2.33;;;14.60;99.90;;;;;;4965448;28;96093;-75
2023/08/14 03:06:29;;;;;;;4.63;1.95;;;14.60;99.90;;;;;;4967695;28;92838;-75
2023/08/14 03:08:56;;;;;;;7.85;2.13;;;14.60;99.90;;;;;;4967849;28;92911;-75
2023/08/14 03:11:22;;;;;;;4.75;2.00;;;14.60;99.90;;;;;;4966428;28;93268;-74
2023/08/14 03:13:47;;;;;;;5.78;1.60;;;14.60;99.90;;;;;;4965880;28;93154;-75
2023/08/14 03:16:13;;;;;;;3.80;1.98;;;14.60;99.90;;;;;;4966191;28;92560;-75
2023/08/14 03:18:38;;;;;;;7.85;2.38;;;14.60;99.90;;;;;;4965587;28;91793;-74
2023/08/14 03:21:04;;;;;;;3.88;1.70;;;14.50;99.90;;;;;;4965851;28;93934;-75
2023/08/14 03:23:30;;;;;;;9.93;2.10;;;14.50;99.90;;;;;;4966037;28;98036;-77
2023/08/14 03:25:55;;;;;;;4.32;2.20;;;14.50;99.90;;;;;;4965161;28;93701;-75
2023/08/14 03:28:21;;;;;;;5.68;1.88;;;14.50;99.90;;;;;;4965669;28;92182;-75
2023/08/14 03:30:49;;;;;;;2.67;1.80;;;14.40;99.90;;;;;;4965275;28;92832;-75
2023/08/14 03:33:15;;;;;;;4.28;2.13;;;14.40;99.90;;;;;;4966731;28;93579;-76
2023/08/14 03:35:40;;;;;;;7.78;1.98;;;14.40;99.90;;;;;;4965720;28;93010;-74
2023/08/14 03:38:06;;;;;;;5.97;2.22;;;14.40;99.90;;;;;;4965681;28;92512;-75
2023/08/14 03:40:32;;;;;;;5.43;1.90;;;14.30;99.90;;;;;;4964799;28;93766;-75
2023/08/14 03:42:57;;;;;;;4.10;1.70;;;14.30;99.90;;;;;;4965299;28;92576;-75
2023/08/14 03:45:23;;;;;;;5.90;2.08;;;14.30;99.90;;;;;;4966172;28;92621;-75
2023/08/14 03:47:49;;;;;;;4.60;1.95;;;14.30;99.90;;;;;;4966169;28;92577;-75
2023/08/14 03:50:14;;;;;;;9.65;2.30;;;14.20;99.90;;;;;;4964810;28;94329;-74
2023/08/14 03:52:44;;;;;;;8.23;2.35;;;14.20;99.90;;;;;;4966004;28;94892;-74
2023/08/14 03:55:09;;;;;;;5.15;1.70;;;14.20;99.90;;;;;;4965515;28;92446;-75
2023/08/14 03:57:35;;;;;;;6.18;1.95;;;14.20;99.90;;;;;;4964792;28;92175;-74
2023/08/14 04:00:01;;;;;;;4.20;2.13;;;14.20;99.90;;;;;;4965059;28;94222;-75
2023/08/14 04:02:26;;;;;;;7.35;2.10;;;14.20;99.90;;;;;;4965701;28;93783;-75
2023/08/14 04:04:52;;;;;;;6.07;2.13;;;14.20;99.90;;;;;;4965591;28;92522;-75
2023/08/14 04:07:17;;;;;;;3.70;2.03;;;14.10;99.90;;;;;;4966205;28;91773;-75
2023/08/14 04:09:43;;;;;;;4.68;1.98;;;14.10;99.90;;;;;;4965378;28;92670;-74
2023/08/14 04:12:12;;;;;;;4.35;2.40;;;14.10;99.90;;;;;;4949395;28;96307;-75
2023/08/14 04:14:37;;;;;;;3.10;1.65;;;14.10;99.90;;;;;;4967276;28;93148;-75
2023/08/14 04:17:03;;;;;;;12.23;2.03;;;14.00;99.90;;;;;;4949531;28;92861;-75
2023/08/14 04:19:29;;;;;;;4.88;2.10;;;14.00;99.90;;;;;;4965403;28;92852;-75
2023/08/14 04:21:55;;;;;;;5.22;1.88;;;14.00;99.90;;;;;;4966406;28;95029;-75
2023/08/14 04:24:20;;;;;;;4.47;1.73;;;14.00;99.90;;;;;;4966101;28;92552;-75
2023/08/14 04:26:46;;;;;;;5.90;2.20;;;14.00;99.90;;;;;;4969442;28;92401;-75
2023/08/14 04:29:12;;;;;;;6.68;2.05;;;14.00;99.90;;;;;;4967240;28;93713;-74
2023/08/14 04:31:39;;;;;;;11.65;2.15;;;14.00;99.90;;;;;;4947473;28;95469;-75
2023/08/14 04:34:06;;;;;;;6.47;1.67;;;13.90;99.90;;;;;;4966184;28;92782;-75
2023/08/14 04:36:32;;;;;;;6.60;2.28;;;13.90;99.90;;;;;;4964441;28;92800;-75
2023/08/14 04:38:59;;;;;;;2.83;2.00;;;13.90;99.90;;;;;;4966486;28;94618;-75
2023/08/14 04:41:26;;;;;;;6.93;2.55;;;13.90;99.90;;;;;;4966097;28;94304;-75
2023/08/14 04:43:52;;;;;;;10.85;2.40;;;13.80;99.90;;;;;;4963937;28;93548;-75
2023/08/14 04:46:33;;;;;;;9.63;2.92;;;13.90;99.90;;;;;;4964907;28;92624;-75
2023/08/14 04:49:00;;;;;;;8.07;2.55;;;13.80;99.90;;;;;;4966367;28;93677;-75
2023/08/14 04:51:26;;;;;;;11.80;3.55;;;13.90;99.90;;;;;;4948281;28;95991;-75
2023/08/14 04:53:53;;;;;;;8.95;3.30;;;13.90;99.90;;;;;;4947294;28;92615;-75
2023/08/14 04:56:18;;;;;;;11.43;2.75;;;13.90;99.90;;;;;;4972983;28;91953;-75
2023/08/14 04:58:44;;;;;;;8.35;2.85;;;13.90;99.90;;;;;;4964630;28;93238;-75
2023/08/14 05:01:10;;;;;;;8.98;3.30;;;14.00;99.90;;;;;;4964230;28;92832;-75
2023/08/14 05:03:37;;;;;;;11.60;3.17;;;14.00;99.90;;;;;;4965211;28;93647;-75
2023/08/14 05:06:02;;;;;;;11.73;3.03;;;14.00;99.90;;;;;;4956677;28;92760;-75
2023/08/14 05:08:28;;;;;;;10.80;3.15;;;14.00;99.90;;;;;;4964040;28;93138;-75
2023/08/14 05:10:54;;;;;;;6.43;3.25;;;14.10;99.90;;;;;;4947949;28;96251;-75
2023/08/14 05:13:20;;;;;;;7.93;2.53;;;14.20;99.90;;;;;;4969003;28;92603;-75
2023/08/14 05:15:47;;;;;;;7.93;2.50;;;14.20;99.90;;;;;;4963092;28;92686;-75
2023/08/14 05:18:13;;;;;;;7.85;3.17;;;14.30;99.90;;;;;;4964857;28;93391;-75
2023/08/14 05:20:43;;;;;;;4.65;2.97;;;14.40;99.90;;;;;;4966581;28;92883;-76
2023/08/14 05:23:08;;;;;;;11.15;3.13;;;14.40;99.90;;;;;;4965000;28;92931;-75
2023/08/14 05:25:34;;;;;;;5.90;2.70;;;14.50;99.90;;;;;;4965549;28;93064;-75
2023/08/14 05:27:59;;;;;;;13.57;3.95;;;14.50;99.90;;;;;;4945469;28;96777;-73
2023/08/14 05:30:25;;;;;;;9.57;4.10;;;14.60;99.90;;;;;;4965378;28;94615;-75
2023/08/14 05:32:51;;;;;;;11.75;3.40;;;14.70;99.90;;;;;;4966769;28;93383;-76
2023/08/14 05:35:22;;;;;;;16.30;4.10;;;14.70;99.90;;;;;;4963594;28;92987;-76
2023/08/14 05:37:48;;;;;;;8.52;2.92;;;14.80;99.90;;;;;;4948768;28;96751;-75
2023/08/14 05:40:14;;;;;;;10.88;3.63;;;14.90;99.90;;;;;;4965524;28;93256;-76
2023/08/14 05:42:40;;;;;;;5.15;3.38;;;15.00;99.90;;;;;;4966394;28;92822;-76
2023/08/14 05:45:06;;;;;;;9.70;3.22;;;15.00;99.90;;;;;;4963758;28;92033;-75
2023/08/14 05:47:32;;;;;;;9.38;3.70;;;15.10;99.90;;;;;;4948468;28;97789;-76
2023/08/14 05:49:57;;;;;;;10.75;3.28;;;15.10;99.90;;;;;;4964073;28;93273;-75
2023/08/14 05:52:23;;;;;;;8.23;3.20;;;15.20;99.90;;;;;;4964869;28;93636;-76
2023/08/14 05:54:48;;;;;;;8.50;2.67;;;15.20;99.90;;;;;;4963644;28;92905;-75
2023/08/14 05:57:14;;;;;;;6.57;2.90;;;15.30;99.90;;;;;;4964900;28;93482;-77
2023/08/14 05:59:40;;;;;;;5.47;2.85;;;15.30;99.90;;;;;;4950192;28;96206;-77
2023/08/14 06:02:06;;;;;;;6.60;2.83;;;15.40;99.90;;;;;;4948738;28;92656;-77
2023/08/14 06:04:33;;;;;;;7.95;3.60;;;15.50;99.90;;;;;;4953713;28;92810;-77
2023/08/14 06:06:58;;;;;;;5.80;3.25;;;15.50;99.90;;;;;;4963081;28;96726;-77
2023/08/14 06:09:25;;;;;;;8.00;3.05;;;15.50;99.90;;;;;;4964948;28;93339;-77
2023/08/14 06:11:50;;;;;;;5.43;2.70;;;15.60;99.90;;;;;;4965265;28;92660;-78
2023/08/14 06:14:16;;;;;;;6.75;3.50;;;15.60;99.90;;;;;;4968679;28;92585;-78
2023/08/14 06:16:42;;;;;;;5.50;3.20;;;15.70;99.90;;;;;;4962537;28;97269;-78
2023/08/14 06:19:08;;;;;;;6.78;3.20;;;15.70;99.90;;;;;;4946425;28;96209;-78
2023/08/14 06:21:34;;;;;;;6.95;3.38;;;15.70;99.90;;;;;;4946483;28;92714;-78
2023/08/14 06:24:00;;;;;;;8.02;3.03;;;15.80;99.90;;;;;;4947513;28;92582;-77
2023/08/14 06:26:26;;;;;;;7.40;2.58;;;15.80;99.90;;;;;;4964814;28;93310;-78
2023/08/14 06:28:51;;;;;;;7.50;2.83;;;15.80;99.90;;;;;;4968583;28;93130;-78
2023/08/14 06:31:17;;;;;;;5.63;2.80;;;15.80;99.90;;;;;;4948098;28;92703;-78
2023/08/14 06:33:44;;;;;;;7.10;3.22;;;15.80;99.90;;;;;;4947091;28;92123;-78
2023/08/14 06:36:10;;;;;;;9.20;3.00;;;15.90;99.90;;;;;;4943616;28;95954;-79
2023/08/14 06:38:36;;;;;;;16.98;3.72;;;15.90;99.90;;;;;;4964929;28;92640;-77
2023/08/14 06:41:01;;;;;;;8.13;3.08;;;15.90;99.90;;;;;;4951723;28;93734;-78
2023/08/14 06:43:27;;;;;;;6.95;3.05;;;16.00;99.90;;;;;;4938769;28;92691;-77
2023/08/14 06:45:53;;;;;;;9.90;2.78;;;16.00;99.90;;;;;;4962745;28;93445;-77
2023/08/14 06:48:19;;;;;;;6.45;3.50;;;16.10;99.90;;;;;;4961725;28;92869;-77
2023/08/14 06:50:45;;;;;;;11.80;3.38;;;16.20;99.90;;;;;;4944605;28;92969;-77
2023/08/14 06:53:11;;;;;;;9.40;2.88;;;16.30;99.90;;;;;;4963391;28;92540;-77
2023/08/14 06:55:36;;;;;;;7.53;2.88;;;16.40;99.90;;;;;;4960140;28;95771;-78
2023/08/14 06:58:02;;;;;;;8.48;2.90;;;16.50;99.90;;;;;;4943263;28;96201;-78
2023/08/14 07:00:28;;;;;;;11.88;3.35;;;16.60;99.90;;;;;;4960317;28;92580;-76
2023/08/14 07:02:53;;;;;;;7.13;3.20;;;16.70;99.90;;;;;;4963527;28;92699;-76
2023/08/14 07:05:19;;;;;;;10.57;2.63;;;16.80;99.90;;;;;;4959081;28;97869;-75
2023/08/14 07:07:45;;;;;;;10.27;2.90;;;16.90;99.60;;;;;;4945070;28;97693;-77
2023/08/14 07:10:11;;;;;;;9.68;2.90;;;17.00;99.90;;;;;;4946133;28;92544;-77
2023/08/14 07:12:36;;;;;;;8.82;2.90;;;17.10;99.90;;;;;;4959583;28;92802;-78
2023/08/14 07:15:02;;;;;;;5.38;2.35;;;17.30;99.90;;;;;;4945387;28;97322;-77
2023/08/14 07:17:28;;;;;;;9.85;2.55;;;17.40;99.90;;;;;;4966075;28;93803;-78
2023/08/14 07:19:54;;;;;;;10.85;3.00;;;17.60;99.90;;;;;;4946236;28;92782;-77
2023/08/14 07:22:20;;;;;;;9.75;2.85;;;17.70;99.50;;;;;;4967989;28;91919;-77
2023/08/14 07:24:45;;;;;;;10.20;2.80;;;17.90;99.60;;;;;;4955890;28;96554;-78
2023/08/14 07:27:11;;;;;;;7.43;2.10;;;18.00;99.00;;;;;;4947543;28;96633;-76
2023/08/14 07:29:37;;;;;;;6.57;2.60;;;18.20;98.20;;;;;;4950629;28;93664;-77
2023/08/14 07:32:02;;;;;;;7.07;2.33;;;18.30;97.80;;;;;;4947194;28;92890;-77
2023/08/14 07:34:28;;;;;;;7.53;2.15;;;18.40;97.80;;;;;;4964193;28;93322;-77
2023/08/14 07:36:54;;;;;;;6.47;2.45;;;18.60;97.90;;;;;;4964696;28;93116;-78
2023/08/14 07:39:20;;;;;;;5.80;2.00;;;18.70;97.60;;;;;;4947361;28;98428;-78
2023/08/14 07:41:45;;;;;;;7.25;2.00;;;18.80;97.50;;;;;;4949427;28;92992;-78
2023/08/14 07:44:11;;;;;;;10.95;2.42;;;19.00;97.10;;;;;;4965242;28;93478;-77
2023/08/14 07:46:37;;;;;;;10.93;2.60;;;19.10;97.50;;;;;;4948245;28;96106;-77
2023/08/14 07:49:02;;;;;;;14.00;2.22;;;19.30;96.50;;;;;;4965859;28;92750;-77
2023/08/14 07:51:28;;;;;;;5.40;1.67;;;19.40;97.30;;;;;;4945690;28;92749;-78
2023/08/14 07:53:54;;;;;;;6.78;2.00;;;19.60;97.00;;;;;;4965039;28;94197;-77
2023/08/14 07:56:19;;;;;;;9.80;1.80;;;19.80;95.60;;;;;;4954735;28;97213;-77
2023/08/14 07:58:45;;;;;;;6.47;1.63;;;19.90;95.40;;;;;;4965174;28;92473;-77
2023/08/14 08:01:11;;;;;;;6.60;1.40;;;20.10;94.80;;;;;;4967171;28;92188;-77
2023/08/14 08:03:36;;;;;;;6.65;1.50;;;20.30;93.80;;;;;;4965301;28;92886;-78
2023/08/14 08:06:02;;;;;;;4.78;1.42;;;20.40;92.80;;;;;;4965423;28;95246;-77
2023/08/14 08:08:28;;;;;;;5.60;1.27;;;20.50;93.30;;;;;;4949474;28;92947;-78
2023/08/14 08:10:54;;;;;;;4.63;1.20;;;20.60;92.80;;;;;;4967114;28;91531;-78
2023/08/14 08:13:19;;;;;;;8.63;2.00;;;20.80;92.60;;;;;;4944936;28;97107;-78
2023/08/14 08:15:46;;;;;;;4.78;1.45;;;21.00;93.30;;;;;;4948425;28;95193;-76
2023/08/14 08:18:11;;;;;;;6.60;1.35;;;21.20;92.80;;;;;;4947367;28;93424;-78
2023/08/14 08:20:37;;;;;;;6.88;1.50;;;21.30;92.10;;;;;;4964957;28;92926;-77
2023/08/14 08:23:03;;;;;;;5.60;1.27;;;21.50;93.00;;;;;;4949515;28;94951;-76
2023/08/14 08:25:29;;;;;;;4.82;1.73;;;21.70;92.30;;;;;;4947680;28;94830;-77
2023/08/14 08:28:04;;;;;;;5.93;1.60;;;21.90;91.10;;;;;;4947448;28;92871;-78
2023/08/14 08:30:39;;;;;;;4.13;1.25;;;22.10;91.00;;;;;;4947816;28;92508;-78
2023/08/14 08:33:06;;;;;;;5.28;1.13;;;22.20;90.40;;;;;;4971204;28;96602;-77
2023/08/14 08:35:32;;;;;;;4.78;1.30;;;22.40;91.00;;;;;;4967628;28;92889;-77
2023/08/14 08:37:57;;;;;;;3.53;1.10;;;22.60;90.00;;;;;;4967936;28;92329;-77
2023/08/14 08:40:24;;;;;;;4.50;1.10;;;22.70;88.60;;;;;;4947997;28;93055;-77
2023/08/14 08:42:52;;;;;;;3.50;1.02;;;22.90;87.30;;;;;;4955793;28;96620;-77
2023/08/14 08:45:22;;;;;;;5.53;1.17;;;23.00;86.60;;;;;;4949401;28;93804;-81
2023/08/14 08:47:49;;;;;;;8.07;1.92;;;23.30;86.30;;;;;;4967609;28;92745;-86
2023/08/14 08:50:15;;;;;;;21.70;1.38;;;23.40;85.60;;;;;;4965588;28;92746;-82
2023/08/14 08:52:41;;;;;;;9.43;1.70;;;23.60;83.60;;;;;;4952298;28;95300;-82
2023/08/14 08:55:07;;;;;;;4.90;1.48;;;23.80;86.60;;;;;;4963538;28;94607;-85
2023/08/14 08:57:35;;;;;;;2.55;0.80;;;24.00;82.90;;;;;;4971490;28;92773;-82
2023/08/14 09:00:01;;;;;;;4.15;1.10;;;24.10;81.90;;;;;;4950601;28;91723;-81
2023/08/14 09:02:27;;;;;;;4.82;1.33;;;24.30;82.10;;;;;;4948312;28;95703;-82
2023/08/14 09:04:53;;;;;;;5.50;1.00;;;24.50;81.10;;;;;;4947432;28;96233;-78
2023/08/14 09:07:19;;;;;;;3.38;1.00;;;24.60;78.50;;;;;;4963571;28;93565;-78
2023/08/14 09:09:45;;;;;;;4.80;1.08;;;24.70;78.50;;;;;;4966967;28;92855;-78
2023/08/14 09:12:10;;;;;;;4.75;1.10;;;24.80;76.70;;;;;;4966287;28;93410;-78
2023/08/14 09:14:45;;;;;;;3.97;1.10;;;24.80;76.80;;;;;;4966376;28;92462;-77
2023/08/14 09:17:11;;;;;;;3.10;0.98;;;24.90;76.40;;;;;;4964349;28;92868;-78
2023/08/14 09:19:39;;;;;;;5.80;1.20;;;25.00;76.20;;;;;;4945690;28;93196;-78
2023/08/14 09:22:05;;;;;;;7.00;1.35;;;25.00;75.50;;;;;;4964286;28;93005;-78
2023/08/14 09:24:36;;;;;;;5.72;1.23;;;25.10;73.10;;;;;;4964123;28;93800;-78
2023/08/14 09:27:02;;;;;;;4.78;1.13;;;25.10;77.10;;;;;;4956454;28;92522;-78
2023/08/14 09:29:31;;;;;;;4.55;1.00;;;25.20;74.20;;;;;;4963674;28;92652;-78
2023/08/14 09:31:58;;;;;;;3.47;1.00;;;25.40;73.50;;;;;;4963373;28;93998;-78
2023/08/14 09:34:23;;;;;;;4.55;0.90;;;25.50;72.60;;;;;;4963130;28;94465;-78
2023/08/14 09:36:49;;;;;;;5.35;1.00;;;25.70;71.40;;;;;;4961261;28;92688;-77
2023/08/14 09:39:15;;;;;;;4.75;1.15;;;25.80;72.40;;;;;;4965276;28;92986;-78
2023/08/14 09:41:46;;;;;;;6.18;1.38;;;26.00;68.20;;;;;;4954963;28;96625;-78
2023/08/14 09:44:12;;;;;;;6.22;0.93;;;26.20;68.50;;;;;;4964447;28;93899;-78
2023/08/14 09:46:37;;;;;;;5.43;1.25;;;26.30;69.00;;;;;;4961782;28;92960;-77
2023/08/14 09:49:05;;;;;;;3.28;0.93;;;26.40;70.40;;;;;;4964305;28;91856;-77
2023/08/14 09:51:32;;;;;;;5.57;1.08;;;26.70;70.50;;;;;;4962670;28;93607;-78
2023/08/14 09:53:58;;;;;;;3.55;1.35;;;26.90;69.40;;;;;;4964928;28;93161;-78
2023/08/14 09:56:25;;;;;;;5.90;1.55;;;27.00;72.00;;;;;;4945060;28;93793;-78
2023/08/14 09:58:52;;;;;;;3.58;0.90;;;27.20;70.80;;;;;;4969443;28;92701;-78
2023/08/14 10:01:19;;;;;;;7.30;1.38;;;27.40;66.50;;;;;;4959644;28;96658;-78
2023/08/14 10:04:14;;;;;;;4.05;0.80;;;27.40;67.20;;;;;;4964901;28;92581;-77
2023/08/14 10:06:40;;;;;;;4.22;0.80;;;27.40;65.00;;;;;;4963233;28;92217;-78
2023/08/14 10:09:06;;;;;;;6.43;0.95;;;27.60;65.00;;;;;;4963532;28;92868;-78
2023/08/14 10:11:35;;;;;;;5.55;0.88;;;27.50;60.40;;;;;;4945760;28;97507;-78
2023/08/14 10:14:04;;;;;;;7.57;1.58;;;27.40;63.10;;;;;;4962727;28;92413;-78
2023/08/14 10:16:38;;;;;;;5.38;1.35;;;27.50;63.30;;;;;;4961910;28;92195;-78
2023/08/14 10:19:07;;;;;;;;;;;27.70;66.90;;;;;;4961002;28;93139;-77
2023/08/14 10:21:34;;;;;;;4.57;0.90;;;28.00;64.50;;;;;;4961582;28;97674;-77
2023/08/14 10:24:02;;;;;;;10.05;1.30;;;28.10;60.80;;;;;;4960142;28;94347;-78
2023/08/14 10:26:29;;;;;;;7.88;1.20;;;28.10;58.60;;;;;;4963392;28;92753;-77
2023/08/14 10:28:57;;;;;;;5.15;0.93;;;28.10;58.40;;;;;;4963068;28;92608;-78
2023/08/14 10:31:24;;;;;;;7.38;1.10;;;28.10;60.70;;;;;;4962118;28;93223;-78
2023/08/14 10:33:51;;;;;;;7.22;1.38;;;28.20;55.90;;;;;;4962618;28;93361;-78
2023/08/14 10:36:21;;;;;;;5.95;1.08;;;28.30;61.00;;;;;;4963179;28;92675;-78
2023/08/14 10:38:48;;;;;;;5.30;1.05;;;28.40;58.60;;;;;;4963388;28;91907;-78
2023/08/14 10:41:16;;;;;;;4.88;0.90;;;28.50;60.00;;;;;;4944300;28;95085;-79
2023/08/14 10:43:42;;;;;;;3.08;0.95;;;28.70;60.60;;;;;;4963335;28;93306;-78
2023/08/14 10:46:14;;;;;;;9.02;1.45;;;28.90;59.90;;;;;;4964996;28;93546;-78
2023/08/14 10:48:42;;;;;;;4.88;1.20;;;29.10;60.30;;;;;;4962683;28;93131;-78
2023/08/14 10:51:08;;;;;;;7.45;1.60;;;29.30;58.60;;;;;;4966138;28;93689;-78
2023/08/14 10:53:35;;;;;;;6.55;0.85;;;29.40;59.90;;;;;;4966559;28;93300;-79
2023/08/14 10:56:01;;;;;;;7.38;1.45;;;29.60;58.90;;;;;;4970114;28;92914;-78
2023/08/14 10:58:33;;;;;;;4.63;1.27;;;29.90;55.10;;;;;;4968122;28;92538;-78
2023/08/14 11:00:59;;;;;;;3.83;1.20;;;29.80;55.20;;;;;;4966857;28;94081;-78
2023/08/14 11:03:25;;;;;;;7.03;1.30;;;29.70;55.60;;;;;;4967221;28;92764;-79
2023/08/14 11:05:51;;;;;;;5.95;1.02;;;29.50;56.20;;;;;;4967384;28;92539;-78
2023/08/14 11:08:17;;;;;;;8.00;1.35;;;29.60;56.10;;;;;;4948455;28;92419;-78
2023/08/14 11:10:44;;;;;;;6.90;1.17;;;29.60;55.40;;;;;;4965490;28;94962;-78
2023/08/14 11:13:10;;;;;;;5.35;1.38;;;29.60;57.20;;;;;;4945619;28;97595;-78
2023/08/14 11:15:38;;;;;;;3.08;0.95;;;29.80;54.20;;;;;;4964820;28;92898;-78
2023/08/14 11:18:05;;;;;;;4.57;0.85;;;29.80;54.90;;;;;;4966617;28;92661;-78
2023/08/14 11:20:32;;;;;;;4.13;1.05;;;29.90;53.00;;;;;;4971714;28;100791;-78
2023/08/14 11:23:01;;;;;;;5.97;1.23;;;30.00;57.10;;;;;;4947280;28;96671;-78
2023/08/14 11:25:28;;;;;;;5.07;1.42;;;30.20;55.60;;;;;;4965179;28;92503;-78
2023/08/14 11:27:55;;;;;;;4.97;1.58;;;30.30;55.20;;;;;;4965488;28;92131;-78
2023/08/14 11:30:25;;;;;;;4.97;1.60;;;30.40;54.10;;;;;;4956176;28;96705;-78
2023/08/14 11:32:52;;;;;;;5.10;1.20;;;30.40;52.60;;;;;;4974292;28;96024;-77
2023/08/14 11:35:18;;;;;;;7.60;1.20;;;30.30;53.80;;;;;;4965065;28;93194;-77
2023/08/14 11:37:47;;;;;;;3.50;1.02;;;30.20;54.20;;;;;;4964314;28;92750;-78
2023/08/14 11:40:17;;;;;;;4.35;1.45;;;30.10;53.00;;;;;;4956285;28;95568;-77
2023/08/14 11:42:43;;;;;;;9.13;1.17;;;30.10;55.30;;;;;;4948223;28;95366;-77
2023/08/14 11:45:10;;;;;;;6.22;1.95;;;30.40;57.20;;;;;;4965153;28;93184;-78
2023/08/14 11:47:39;;;;;;;4.22;0.90;;;30.60;54.70;;;;;;4948107;28;92782;-77
2023/08/14 11:50:07;;;;;;;5.85;1.30;;;30.80;52.40;;;;;;4963607;28;93536;-77
2023/08/14 11:52:34;;;;;;;6.32;1.73;;;30.80;55.40;;;;;;4946508;28;96127;-77
2023/08/14 11:55:01;;;;;;;6.13;1.17;;;31.00;53.30;;;;;;4964939;28;93323;-77
2023/08/14 11:57:30;;;;;;;5.60;1.35;;;31.20;53.10;;;;;;4965783;28;92709;-78
2023/08/14 11:59:57;;;;;;;4.32;1.40;;;31.20;50.70;;;;;;4956089;28;97768;-77
2023/08/14 12:02:27;;;;;;;5.88;1.02;;;31.10;51.50;;;;;;4947633;28;97043;-77
2023/08/14 12:05:00;;;;;;;8.05;1.10;;;31.10;52.50;;;;;;4965615;28;92554;-78
2023/08/14 12:07:27;;;;;;;;;;;31.30;52.20;;;;;;4956383;28;92423;-77
2023/08/14 12:09:54;;;;;;;6.80;1.38;;;31.40;51.90;;;;;;4966092;28;93316;-78
2023/08/14 12:12:21;;;;;;;6.10;1.20;;;31.30;52.10;;;;;;4964591;28;94309;-78
2023/08/14 12:14:49;;;;;;;6.60;1.27;;;30.90;52.10;;;;;;4972688;28;92778;-78
2023/08/14 12:17:18;;;;;;;2.80;1.30;;;30.90;51.50;;;;;;4946862;28;91828;-78
2023/08/14 12:19:49;;;;;;;6.65;1.40;;;30.80;51.50;;;;;;4964732;28;93877;-77
2023/08/14 12:22:15;;;;;;;6.07;1.83;;;30.70;54.40;;;;;;4971555;28;95291;-78
2023/08/14 12:24:43;;;;;;;4.95;1.40;;;30.90;52.50;;;;;;4963434;28;93614;-78
2023/08/14 12:27:17;;;;;;;4.88;1.30;;;31.10;54.50;;;;;;4948627;28;92794;-77
2023/08/14 12:29:43;;;;;;;5.53;1.35;;;31.30;52.10;;;;;;4966805;28;93298;-77
2023/08/14 12:32:09;;;;;;;4.93;1.10;;;31.30;51.80;;;;;;4964546;28;93529;-77
2023/08/14 12:34:35;;;;;;;5.22;1.08;;;31.40;56.30;;;;;;4955000;28;93400;-77
2023/08/14 12:37:02;;;;;;;8.07;1.65;;;31.60;50.00;;;;;;4964388;28;92944;-77
2023/08/14 12:39:28;;;;;;;4.72;1.40;;;31.70;51.50;;;;;;4965627;28;93526;-77
2023/08/14 12:41:58;;;;;;;5.28;1.17;;;31.70;52.10;;;;;;4950078;28;96227;-77
2023/08/14 12:44:24;;;;;;;4.30;1.38;;;31.90;52.80;;;;;;4963225;28;92451;-77